Time;durP1;ratioP1;P1;durP2;ratioP2;P2;SDS_P1;SDS_P2;PMS_P1;PMS_P2;Temp;Humidity;BMP_temperature;BMP_pressure;BME280_temperature;BME280_humidity;BME280_pressure;Samples;Min_cycle;Max_cycle;Signal;HPM_P1;HPM_P2
2022/07/19 00:00:01;;;;;;;9.83;4.00;;;25.30;49.00;;;;;;4997219;28;20456;-69
2022/07/19 00:02:29;;;;;;;14.63;3.30;;;25.20;49.00;;;;;;4997103;28;20484;-68
2022/07/19 00:04:55;;;;;;;16.10;3.97;;;25.20;49.10;;;;;;4997129;28;20448;-68
2022/07/19 00:07:22;;;;;;;13.70;3.67;;;25.20;49.30;;;;;;4996677;28;20849;-68
2022/07/19 00:09:49;;;;;;;7.90;3.50;;;25.10;49.30;;;;;;4996978;28;20455;-68
2022/07/19 00:12:16;;;;;;;10.73;4.10;;;25.10;49.30;;;;;;4996529;28;20456;-68
2022/07/19 00:14:43;;;;;;;12.87;3.53;;;25.00;49.30;;;;;;4996715;28;20453;-68
2022/07/19 00:17:09;;;;;;;8.47;3.00;;;24.90;49.40;;;;;;4996605;28;20471;-68
2022/07/19 00:19:37;;;;;;;7.30;3.57;;;24.90;49.70;;;;;;4996397;28;20479;-68
2022/07/19 00:22:04;;;;;;;10.43;3.67;;;24.80;49.70;;;;;;4996484;28;20842;-68
2022/07/19 00:24:31;;;;;;;10.50;3.43;;;24.70;49.80;;;;;;4996305;28;20899;-68
2022/07/19 00:26:58;;;;;;;9.10;3.53;;;24.70;50.00;;;;;;4996525;28;20447;-68
2022/07/19 00:29:24;;;;;;;9.53;3.47;;;24.70;50.00;;;;;;4996410;28;20444;-68
2022/07/19 00:31:51;;;;;;;8.83;3.43;;;24.60;50.20;;;;;;4996641;28;20440;-68
2022/07/19 00:34:18;;;;;;;9.53;3.50;;;24.60;50.30;;;;;;4996461;28;20445;-68
2022/07/19 00:36:46;;;;;;;10.80;3.50;;;24.50;50.40;;;;;;4996351;28;20448;-68
2022/07/19 00:39:13;;;;;;;10.33;4.30;;;24.50;50.50;;;;;;4996160;28;20503;-68
2022/07/19 00:41:41;;;;;;;5.50;3.17;;;24.40;50.70;;;;;;4996326;28;20480;-68
2022/07/19 00:44:09;;;;;;;9.20;3.23;;;24.40;50.90;;;;;;4996659;28;20495;-68
2022/07/19 00:46:36;;;;;;;7.03;3.40;;;24.30;51.00;;;;;;4996240;28;20452;-68
2022/07/19 00:49:04;;;;;;;8.20;3.63;;;24.30;51.10;;;;;;4996024;28;20468;-68
2022/07/19 00:51:34;;;;;;;7.87;3.60;;;24.30;51.00;;;;;;4995892;28;20806;-68
2022/07/19 00:54:03;;;;;;;9.10;3.03;;;24.20;51.10;;;;;;4995665;28;20428;-68
2022/07/19 00:56:32;;;;;;;12.07;3.80;;;24.20;51.10;;;;;;4995557;28;20459;-68
2022/07/19 00:59:00;;;;;;;8.10;4.20;;;24.10;50.90;;;;;;4995868;28;20499;-68
2022/07/19 01:01:27;;;;;;;9.87;3.80;;;24.10;51.00;;;;;;4995795;28;20553;-68
2022/07/19 01:03:54;;;;;;;12.20;4.83;;;24.00;51.00;;;;;;4995749;28;20950;-68
2022/07/19 01:06:22;;;;;;;15.23;3.60;;;24.00;51.20;;;;;;4995034;28;20448;-68
2022/07/19 01:08:49;;;;;;;9.80;3.13;;;24.00;51.30;;;;;;4995379;28;20472;-68
2022/07/19 01:11:17;;;;;;;10.47;3.40;;;24.00;51.30;;;;;;4995397;28;20834;-68
2022/07/19 01:13:44;;;;;;;19.23;3.83;;;23.90;51.50;;;;;;4995617;28;20455;-68
2022/07/19 01:16:11;;;;;;;9.93;3.67;;;23.90;51.70;;;;;;4995569;28;20463;-68
2022/07/19 01:18:37;;;;;;;7.73;3.90;;;23.80;51.80;;;;;;4995458;28;20475;-68
2022/07/19 01:21:05;;;;;;;6.20;3.37;;;23.80;51.90;;;;;;4995395;28;20472;-68
2022/07/19 01:23:33;;;;;;;13.33;4.33;;;23.70;51.90;;;;;;4995382;28;20471;-68
2022/07/19 01:26:00;;;;;;;11.63;3.93;;;23.70;52.00;;;;;;4995140;28;20820;-68
2022/07/19 01:28:27;;;;;;;8.17;3.30;;;23.70;52.10;;;;;;4995443;28;20472;-68
2022/07/19 01:30:53;;;;;;;8.43;4.00;;;23.60;52.20;;;;;;4995217;28;20448;-68
2022/07/19 01:33:20;;;;;;;5.70;3.23;;;23.60;52.20;;;;;;4995223;28;20820;-68
2022/07/19 01:35:47;;;;;;;13.50;3.83;;;23.50;52.80;;;;;;4995207;28;20448;-68
2022/07/19 01:38:14;;;;;;;7.23;3.50;;;23.50;52.50;;;;;;4995142;28;20648;-68
2022/07/19 01:40:42;;;;;;;5.93;3.33;;;23.50;52.50;;;;;;4994699;28;20970;-68
2022/07/19 01:43:08;;;;;;;11.83;3.50;;;23.50;52.50;;;;;;4995087;28;20459;-68
2022/07/19 01:45:35;;;;;;;6.43;3.37;;;23.50;52.70;;;;;;4994991;28;20453;-68
2022/07/19 01:48:02;;;;;;;8.67;3.47;;;23.40;52.80;;;;;;4994878;28;20475;-68
2022/07/19 01:50:29;;;;;;;7.30;3.30;;;23.40;52.80;;;;;;4994965;28;20511;-68
2022/07/19 01:52:56;;;;;;;5.80;2.70;;;23.40;53.50;;;;;;4994926;28;20456;-67
2022/07/19 01:55:22;;;;;;;9.67;3.87;;;23.30;53.00;;;;;;4994420;28;20839;-68
2022/07/19 01:57:51;;;;;;;5.50;3.20;;;23.30;53.30;;;;;;4994416;28;20472;-68
2022/07/19 02:00:18;;;;;;;5.90;3.50;;;23.20;53.40;;;;;;4994767;28;20449;-69
2022/07/19 02:02:45;;;;;;;9.00;3.97;;;23.20;53.50;;;;;;4994643;28;20492;-69
2022/07/19 02:05:12;;;;;;;3.63;2.87;;;23.10;53.60;;;;;;4994427;28;20444;-69
2022/07/19 02:07:39;;;;;;;5.83;3.87;;;23.10;53.60;;;;;;4994595;28;20476;-69
2022/07/19 02:10:07;;;;;;;4.90;3.50;;;23.10;53.60;;;;;;4994489;28;20447;-68
2022/07/19 02:12:33;;;;;;;11.23;3.70;;;23.00;53.70;;;;;;4994185;28;20976;-68
2022/07/19 02:15:02;;;;;;;8.10;3.30;;;23.00;53.80;;;;;;4994254;28;21057;-68
2022/07/19 02:17:28;;;;;;;9.50;2.97;;;22.90;53.70;;;;;;4994307;28;20469;-68
2022/07/19 02:19:55;;;;;;;7.63;3.70;;;22.90;53.90;;;;;;4994105;28;20448;-68
2022/07/19 02:22:22;;;;;;;9.00;3.47;;;22.80;53.90;;;;;;4994443;28;20487;-69
2022/07/19 02:24:49;;;;;;;5.93;3.40;;;22.70;54.00;;;;;;4994386;28;20462;-69
2022/07/19 02:27:16;;;;;;;7.90;3.40;;;22.70;54.20;;;;;;4994435;28;20468;-69
2022/07/19 02:29:43;;;;;;;9.57;3.43;;;22.70;54.30;;;;;;4994242;28;20447;-68
2022/07/19 02:32:11;;;;;;;2.83;2.63;;;22.60;54.30;;;;;;4994339;28;20448;-68
2022/07/19 02:34:38;;;;;;;5.57;3.70;;;22.60;54.30;;;;;;4994305;28;20467;-68
2022/07/19 02:37:05;;;;;;;6.03;3.63;;;22.60;54.30;;;;;;4994498;28;20459;-68
2022/07/19 02:39:31;;;;;;;6.33;3.80;;;22.60;54.30;;;;;;4994276;28;20459;-68
2022/07/19 02:41:58;;;;;;;3.93;3.43;;;22.60;54.40;;;;;;4994390;28;20484;-69
2022/07/19 02:44:25;;;;;;;9.70;3.80;;;22.70;54.50;;;;;;4994537;28;20455;-69
2022/07/19 02:46:52;;;;;;;4.80;3.80;;;22.70;54.50;;;;;;4994235;28;20451;-69
2022/07/19 02:49:21;;;;;;;5.13;3.10;;;22.70;54.60;;;;;;4994116;28;20455;-69
2022/07/19 02:51:48;;;;;;;7.63;4.07;;;22.70;54.70;;;;;;4994062;28;20440;-69
2022/07/19 02:54:15;;;;;;;6.50;3.60;;;22.70;54.90;;;;;;4994038;28;20530;-69
2022/07/19 02:56:41;;;;;;;7.80;3.57;;;22.70;55.00;;;;;;4993996;28;20452;-69
2022/07/19 02:59:08;;;;;;;5.90;3.40;;;22.70;55.10;;;;;;4993931;28;20483;-69
2022/07/19 03:01:35;;;;;;;3.60;3.13;;;22.60;55.10;;;;;;4993870;28;20487;-69
2022/07/19 03:04:01;;;;;;;8.43;3.20;;;22.50;55.00;;;;;;4993630;28;20448;-69
2022/07/19 03:06:29;;;;;;;5.50;3.40;;;22.50;55.10;;;;;;4993898;28;20444;-69
2022/07/19 03:08:56;;;;;;;6.73;3.40;;;22.50;55.10;;;;;;4993811;28;20468;-69
2022/07/19 03:11:23;;;;;;;5.63;3.77;;;22.40;55.10;;;;;;4993787;28;20840;-69
2022/07/19 03:13:50;;;;;;;4.40;3.20;;;22.30;55.30;;;;;;4993893;28;20456;-69
2022/07/19 03:16:17;;;;;;;4.40;2.90;;;22.20;55.40;;;;;;4993923;28;20474;-69
2022/07/19 03:18:44;;;;;;;5.90;3.37;;;22.20;55.70;;;;;;4993699;28;20833;-69
2022/07/19 03:21:10;;;;;;;3.93;3.00;;;22.20;55.80;;;;;;4993293;28;20468;-69
2022/07/19 03:23:39;;;;;;;6.20;4.10;;;22.20;56.00;;;;;;4993810;28;20452;-69
2022/07/19 03:26:07;;;;;;;5.17;3.53;;;22.20;56.10;;;;;;4993813;28;20472;-69
2022/07/19 03:28:34;;;;;;;4.70;3.60;;;22.10;56.20;;;;;;4993738;28;20547;-69
2022/07/19 03:31:01;;;;;;;6.20;3.90;;;22.00;56.30;;;;;;4997146;28;20451;-69
2022/07/19 03:33:28;;;;;;;12.27;4.13;;;22.00;56.30;;;;;;4997559;28;20436;-69
2022/07/19 03:35:54;;;;;;;7.73;3.73;;;22.00;56.30;;;;;;4997513;28;20452;-69
2022/07/19 03:38:21;;;;;;;5.03;3.67;;;21.90;56.30;;;;;;4997392;28;20475;-69
2022/07/19 03:40:49;;;;;;;5.10;3.47;;;21.90;56.50;;;;;;4997413;28;20448;-69
2022/07/19 03:43:17;;;;;;;7.73;4.00;;;21.80;56.30;;;;;;4996920;28;20996;-69
2022/07/19 03:45:45;;;;;;;8.17;4.13;;;21.80;56.30;;;;;;4997302;28;20807;-69
2022/07/19 03:48:12;;;;;;;4.33;3.30;;;21.80;56.50;;;;;;4996811;28;21088;-69
2022/07/19 03:50:39;;;;;;;3.93;3.23;;;21.80;56.60;;;;;;4997264;28;20456;-69
2022/07/19 03:53:05;;;;;;;6.67;3.50;;;21.70;56.40;;;;;;4996839;28;20846;-69
2022/07/19 03:55:32;;;;;;;6.60;3.60;;;21.70;56.50;;;;;;4996898;28;20960;-69
2022/07/19 03:58:00;;;;;;;4.50;3.30;;;21.70;56.70;;;;;;4996662;28;20989;-69
2022/07/19 04:00:28;;;;;;;6.87;3.93;;;21.70;56.70;;;;;;4996828;28;20463;-69
2022/07/19 04:02:54;;;;;;;7.40;3.70;;;21.70;56.90;;;;;;4997056;28;20483;-69
2022/07/19 04:05:21;;;;;;;6.47;3.70;;;21.60;57.00;;;;;;4997116;28;20451;-69
2022/07/19 04:07:48;;;;;;;4.20;3.33;;;21.70;57.20;;;;;;4996765;28;20472;-69
2022/07/19 04:10:14;;;;;;;7.90;3.73;;;21.70;57.40;;;;;;4996713;28;20456;-69
2022/07/19 04:12:41;;;;;;;5.37;3.73;;;21.70;57.40;;;;;;4996409;28;20456;-69
2022/07/19 04:15:10;;;;;;;7.03;3.37;;;21.70;57.60;;;;;;4996745;28;20816;-69
2022/07/19 04:17:37;;;;;;;8.93;3.83;;;21.70;57.80;;;;;;4996646;28;20472;-69
2022/07/19 04:20:06;;;;;;;5.50;3.90;;;21.80;57.80;;;;;;4996699;28;20433;-69
2022/07/19 04:22:33;;;;;;;4.07;3.63;;;21.80;57.80;;;;;;4996546;28;20488;-69
2022/07/19 04:25:00;;;;;;;4.60;3.93;;;21.80;58.00;;;;;;4996552;28;20449;-69
2022/07/19 04:27:27;;;;;;;8.13;3.90;;;21.90;58.40;;;;;;4996332;28;20522;-69
2022/07/19 04:29:54;;;;;;;5.00;3.53;;;22.00;58.60;;;;;;4996438;28;20444;-69
2022/07/19 04:32:22;;;;;;;6.10;3.57;;;21.90;58.50;;;;;;4996422;28;20456;-69
2022/07/19 04:34:49;;;;;;;3.60;3.30;;;21.90;58.00;;;;;;4996381;28;20444;-69
2022/07/19 04:37:15;;;;;;;4.70;3.90;;;21.90;57.80;;;;;;4996265;28;20467;-69
2022/07/19 04:39:43;;;;;;;10.40;3.87;;;21.80;57.90;;;;;;4996282;28;20451;-69
2022/07/19 04:42:09;;;;;;;5.80;4.37;;;21.80;58.20;;;;;;4994898;28;20483;-69
2022/07/19 04:44:36;;;;;;;4.10;3.70;;;21.80;58.20;;;;;;4996223;28;20456;-69
2022/07/19 04:47:03;;;;;;;4.20;3.80;;;21.80;58.40;;;;;;4996054;28;20448;-69
2022/07/19 04:49:31;;;;;;;9.87;3.50;;;21.90;58.60;;;;;;4996050;28;20457;-69
2022/07/19 04:51:58;;;;;;;5.50;4.00;;;21.90;58.90;;;;;;4996119;28;20451;-69
2022/07/19 04:54:24;;;;;;;7.90;4.67;;;21.90;59.10;;;;;;4996069;28;20462;-69
2022/07/19 04:56:51;;;;;;;8.83;4.23;;;22.00;59.30;;;;;;4995953;28;20444;-69
2022/07/19 04:59:18;;;;;;;6.40;4.10;;;21.90;59.40;;;;;;4995569;28;20459;-69
2022/07/19 05:01:45;;;;;;;7.47;3.40;;;22.00;59.70;;;;;;4995415;28;20449;-69
2022/07/19 05:04:12;;;;;;;5.20;3.70;;;22.00;60.00;;;;;;4995559;28;20804;-69
2022/07/19 05:06:40;;;;;;;6.50;3.93;;;22.10;60.20;;;;;;4995497;28;20946;-69
2022/07/19 05:09:07;;;;;;;6.13;4.07;;;22.10;60.20;;;;;;4996621;28;20562;-69
2022/07/19 05:11:33;;;;;;;7.10;3.60;;;22.20;60.20;;;;;;4995543;28;20490;-69
2022/07/19 05:14:00;;;;;;;4.23;3.47;;;22.30;60.10;;;;;;4995639;28;20502;-69
2022/07/19 05:16:27;;;;;;;4.60;4.10;;;22.40;59.40;;;;;;4995445;28;20942;-69
2022/07/19 05:18:54;;;;;;;9.30;4.17;;;22.50;58.70;;;;;;4995209;28;20996;-69
2022/07/19 05:21:20;;;;;;;10.50;3.90;;;22.60;59.80;;;;;;4995598;28;20445;-69
2022/07/19 05:23:48;;;;;;;6.07;3.40;;;22.70;59.40;;;;;;4995309;28;21020;-69
2022/07/19 05:26:15;;;;;;;8.53;4.70;;;22.80;59.20;;;;;;4995037;28;20836;-69
2022/07/19 05:28:42;;;;;;;7.70;4.30;;;22.90;59.10;;;;;;4995323;28;20483;-69
2022/07/19 05:31:08;;;;;;;6.50;3.97;;;23.00;58.90;;;;;;4995352;28;20460;-69
2022/07/19 05:33:35;;;;;;;6.17;4.60;;;23.00;58.60;;;;;;4995243;28;20444;-69
2022/07/19 05:36:02;;;;;;;7.90;3.57;;;23.10;58.80;;;;;;4995187;28;20821;-69
2022/07/19 05:38:34;;;;;;;12.23;3.77;;;23.20;58.80;;;;;;4995083;28;20468;-69
2022/07/19 05:41:02;;;;;;;8.00;4.30;;;23.20;58.50;;;;;;4995105;28;20437;-69
2022/07/19 05:43:29;;;;;;;4.07;3.60;;;23.40;58.40;;;;;;4995067;28;20488;-69
2022/07/19 05:45:55;;;;;;;5.87;3.70;;;23.50;58.50;;;;;;4994739;28;20964;-69
2022/07/19 05:48:22;;;;;;;8.00;3.80;;;23.50;57.60;;;;;;4994995;28;20468;-69
2022/07/19 05:50:49;;;;;;;8.23;3.83;;;23.60;57.20;;;;;;4994928;28;20455;-69
2022/07/19 05:53:17;;;;;;;6.00;3.90;;;23.70;57.10;;;;;;4994295;28;20440;-69
2022/07/19 05:55:44;;;;;;;19.63;4.63;;;23.80;56.30;;;;;;4994596;28;20448;-69
2022/07/19 05:58:12;;;;;;;8.00;3.40;;;23.90;56.20;;;;;;4994760;28;20494;-69
2022/07/19 06:01:17;;;;;;;4.47;3.40;;;24.00;56.30;;;;;;4994739;28;20539;-69
2022/07/19 06:03:25;;;;;;;4.87;3.40;;;24.10;56.10;;;;;;4994206;28;20491;-69
2022/07/19 06:05:52;;;;;;;4.97;3.33;;;24.30;55.60;;;;;;4994502;28;20432;-69
2022/07/19 06:08:19;;;;;;;4.90;3.47;;;24.30;55.20;;;;;;4994623;28;20482;-69
2022/07/19 06:10:46;;;;;;;4.63;3.53;;;24.40;54.80;;;;;;4994345;28;20452;-69
2022/07/19 06:13:14;;;;;;;4.50;2.70;;;24.50;54.50;;;;;;4994669;28;20440;-69
2022/07/19 06:15:41;;;;;;;5.30;2.77;;;24.70;54.10;;;;;;4994502;28;20452;-69
2022/07/19 06:18:08;;;;;;;6.83;2.97;;;24.80;53.50;;;;;;4994430;28;20468;-69
2022/07/19 06:20:35;;;;;;;5.23;3.07;;;24.90;53.60;;;;;;4994282;28;20467;-69
2022/07/19 06:23:02;;;;;;;6.07;3.47;;;24.90;52.90;;;;;;4994411;28;20494;-69
2022/07/19 06:25:29;;;;;;;8.73;3.77;;;25.10;52.50;;;;;;4994111;28;20797;-69
2022/07/19 06:27:56;;;;;;;5.30;2.70;;;25.20;51.80;;;;;;4994194;28;20478;-69
2022/07/19 06:30:24;;;;;;;6.70;3.03;;;25.30;51.50;;;;;;4994373;28;20448;-69
2022/07/19 06:32:51;;;;;;;3.40;2.67;;;25.40;51.00;;;;;;4994614;28;20436;-69
2022/07/19 06:35:17;;;;;;;5.33;3.70;;;25.50;50.60;;;;;;4994355;28;20463;-69
2022/07/19 06:37:44;;;;;;;8.63;3.80;;;25.60;50.00;;;;;;4993903;28;20845;-69
2022/07/19 06:40:12;;;;;;;4.40;3.03;;;25.80;49.50;;;;;;4994291;28;20458;-70
2022/07/19 06:42:38;;;;;;;5.87;3.20;;;25.90;48.90;;;;;;4994417;28;20826;-71
2022/07/19 06:45:06;;;;;;;6.53;2.97;;;26.00;48.70;;;;;;4994273;28;20436;-68
2022/07/19 06:47:37;;;;;;;9.20;3.83;;;26.20;48.90;;;;;;4994042;28;20475;-68
2022/07/19 06:50:05;;;;;;;9.50;3.20;;;26.30;48.40;;;;;;4994269;28;20564;-68
2022/07/19 06:52:32;;;;;;;7.27;3.40;;;26.40;47.70;;;;;;4994131;28;20437;-68
2022/07/19 06:54:58;;;;;;;5.93;3.17;;;26.60;47.40;;;;;;4994156;28;20451;-68
2022/07/19 06:57:25;;;;;;;4.67;3.40;;;26.70;47.30;;;;;;4993989;28;20566;-68
2022/07/19 06:59:52;;;;;;;9.60;3.43;;;26.90;47.30;;;;;;4994119;28;20455;-68
2022/07/19 07:02:19;;;;;;;7.77;3.80;;;27.00;47.10;;;;;;4993959;28;20432;-68
2022/07/19 07:04:47;;;;;;;9.07;3.60;;;27.20;46.70;;;;;;4995514;28;20479;-68
2022/07/19 07:07:14;;;;;;;7.60;3.30;;;27.40;46.00;;;;;;4998087;28;20476;-68
2022/07/19 07:09:41;;;;;;;5.90;3.10;;;27.50;45.50;;;;;;4997865;28;20432;-69
2022/07/19 07:12:08;;;;;;;6.57;3.20;;;27.60;44.30;;;;;;4997852;28;20472;-69
2022/07/19 07:14:35;;;;;;;4.90;2.93;;;27.80;43.80;;;;;;4998009;28;20448;-69
2022/07/19 07:17:02;;;;;;;5.67;3.07;;;28.00;43.70;;;;;;4997601;28;20961;-69
2022/07/19 07:19:29;;;;;;;6.43;3.30;;;28.10;43.50;;;;;;4997311;28;20787;-70
2022/07/19 07:21:59;;;;;;;6.57;3.60;;;28.30;43.50;;;;;;4996713;28;20926;-69
2022/07/19 07:24:26;;;;;;;8.93;3.20;;;28.50;43.20;;;;;;4997555;28;20992;-69
2022/07/19 07:26:53;;;;;;;9.20;3.40;;;28.70;42.90;;;;;;4997660;28;20454;-70
2022/07/19 07:29:20;;;;;;;6.90;3.40;;;28.90;42.80;;;;;;4997527;28;20456;-70
2022/07/19 07:31:47;;;;;;;10.93;4.03;;;29.10;41.20;;;;;;4997545;28;20439;-70
2022/07/19 07:34:13;;;;;;;8.13;3.50;;;29.20;40.30;;;;;;4997542;28;20458;-70
2022/07/19 07:36:40;;;;;;;4.30;3.70;;;29.30;39.90;;;;;;4997142;28;20790;-70
2022/07/19 07:39:08;;;;;;;6.00;3.73;;;29.50;40.10;;;;;;4997339;28;20476;-70
2022/07/19 07:41:35;;;;;;;6.20;3.40;;;29.60;39.70;;;;;;4997480;28;20451;-70
2022/07/19 07:44:02;;;;;;;8.03;3.60;;;29.80;39.00;;;;;;4996880;28;20483;-70
2022/07/19 07:46:28;;;;;;;6.17;3.33;;;30.10;39.40;;;;;;4997583;28;20868;-70
2022/07/19 07:48:55;;;;;;;5.27;3.60;;;30.30;40.00;;;;;;4996776;28;20839;-70
2022/07/19 07:51:22;;;;;;;5.70;3.50;;;30.50;39.00;;;;;;4996893;28;20980;-70
2022/07/19 07:53:49;;;;;;;10.57;3.47;;;30.80;39.10;;;;;;4996781;28;20806;-70
2022/07/19 07:56:17;;;;;;;4.43;3.67;;;31.00;38.80;;;;;;4996853;28;20440;-70
2022/07/19 07:58:44;;;;;;;8.00;3.80;;;31.20;38.00;;;;;;4996701;28;20460;-70
2022/07/19 08:01:10;;;;;;;9.27;3.60;;;31.40;37.40;;;;;;4997240;28;20437;-70
2022/07/19 08:03:37;;;;;;;7.00;4.30;;;31.60;36.20;;;;;;4997152;28;20476;-70
2022/07/19 08:06:04;;;;;;;6.37;3.37;;;31.80;35.80;;;;;;4996739;28;20906;-70
2022/07/19 08:08:31;;;;;;;7.93;3.53;;;32.00;34.20;;;;;;4996532;28;20848;-70
2022/07/19 08:10:58;;;;;;;6.40;3.70;;;32.20;34.10;;;;;;4996495;28;20913;-70
2022/07/19 08:13:27;;;;;;;8.53;4.13;;;32.50;34.50;;;;;;4996844;28;20428;-70
2022/07/19 08:15:53;;;;;;;4.47;3.53;;;32.70;34.00;;;;;;4996581;28;20443;-70
2022/07/19 08:18:20;;;;;;;11.30;4.07;;;32.90;33.70;;;;;;4996654;28;20478;-70
2022/07/19 08:20:47;;;;;;;7.43;3.07;;;33.10;33.00;;;;;;4996597;28;20451;-70
2022/07/19 08:23:15;;;;;;;4.60;3.70;;;33.40;32.50;;;;;;4996259;28;20843;-70
2022/07/19 08:25:42;;;;;;;5.63;3.73;;;33.60;32.10;;;;;;4996569;28;20456;-70
2022/07/19 08:28:08;;;;;;;8.60;3.90;;;33.70;30.00;;;;;;4996189;28;20992;-70
2022/07/19 08:30:36;;;;;;;7.27;3.80;;;33.90;29.80;;;;;;4996503;28;20448;-70
2022/07/19 08:33:06;;;;;;;7.43;3.73;;;34.10;29.70;;;;;;4996489;28;20451;-70
2022/07/19 08:35:33;;;;;;;5.13;3.63;;;34.30;30.00;;;;;;4996499;28;20436;-70
2022/07/19 08:38:00;;;;;;;9.10;3.90;;;34.60;30.00;;;;;;4996287;28;20472;-70
2022/07/19 08:40:28;;;;;;;7.57;3.50;;;34.80;30.00;;;;;;4995997;28;20810;-70
2022/07/19 08:42:57;;;;;;;8.00;3.50;;;35.00;30.00;;;;;;4996226;28;20458;-70
2022/07/19 08:45:26;;;;;;;5.43;3.30;;;35.20;29.50;;;;;;4995995;28;20436;-70
2022/07/19 08:47:55;;;;;;;6.70;4.20;;;35.50;28.80;;;;;;4996134;28;20468;-70
2022/07/19 08:50:22;;;;;;;5.33;3.10;;;35.70;29.20;;;;;;4996055;28;20500;-70
2022/07/19 08:52:49;;;;;;;7.70;3.93;;;35.80;28.80;;;;;;4996154;28;20451;-70
2022/07/19 08:55:16;;;;;;;6.17;3.70;;;36.10;28.70;;;;;;4996104;28;20463;-70
2022/07/19 08:58:00;;;;;;;9.00;4.33;;;36.20;26.20;;;;;;4995646;28;20840;-70
2022/07/19 09:00:27;;;;;;;6.63;3.60;;;36.30;25.90;;;;;;4996079;28;20479;-70
2022/07/19 09:02:59;;;;;;;6.20;3.90;;;36.40;26.20;;;;;;4995581;28;20999;-70
2022/07/19 09:05:26;;;;;;;5.73;3.83;;;36.50;25.60;;;;;;4995626;28;20842;-70
2022/07/19 09:08:08;;;;;;;3.37;3.00;;;36.60;26.20;;;;;;4995786;28;20474;-70
2022/07/19 09:10:37;;;;;;;7.87;3.50;;;36.90;26.20;;;;;;4995789;28;20455;-70
2022/07/19 09:13:07;;;;;;;5.70;3.90;;;37.10;26.80;;;;;;4995393;28;20531;-70
2022/07/19 09:15:46;;;;;;;6.90;3.60;;;37.40;27.40;;;;;;4995913;28;20425;-70
2022/07/19 09:18:17;;;;;;;6.30;3.40;;;37.70;26.80;;;;;;4995628;28;20243;-70
2022/07/19 09:20:45;;;;;;;13.18;3.83;;;37.80;26.60;;;;;;4995282;28;20203;-70
2022/07/19 09:23:12;;;;;;;5.30;3.40;;;38.10;26.60;;;;;;4995716;28;20210;-70
2022/07/19 09:25:41;;;;;;;5.85;3.42;;;38.30;26.20;;;;;;4995523;28;20205;-70
2022/07/19 09:28:08;;;;;;;4.93;3.38;;;38.50;26.30;;;;;;4994716;28;20572;-70
2022/07/19 09:30:37;;;;;;;10.00;3.58;;;38.70;25.80;;;;;;4995431;28;20585;-70
2022/07/19 09:33:24;;;;;;;7.50;3.50;;;38.90;25.10;;;;;;4995460;28;20251;-70
2022/07/19 09:35:53;;;;;;;6.55;3.55;;;39.20;25.30;;;;;;4995116;28;20283;-70
2022/07/19 09:38:22;;;;;;;5.80;3.47;;;39.40;25.00;;;;;;4995370;28;20220;-70
2022/07/19 09:40:50;;;;;;;11.70;3.67;;;39.60;24.90;;;;;;4995431;28;20598;-70
2022/07/19 09:43:19;;;;;;;10.73;3.13;;;39.90;24.60;;;;;;4995158;28;20209;-70
2022/07/19 09:45:45;;;;;;;8.80;3.38;;;40.20;23.90;;;;;;4995463;28;20239;-70
2022/07/19 09:48:12;;;;;;;6.88;3.50;;;40.30;21.60;;;;;;4995010;28;20246;-70
2022/07/19 09:50:42;;;;;;;9.88;3.40;;;40.50;21.80;;;;;;4995235;28;20578;-70
2022/07/19 09:53:09;;;;;;;5.55;2.67;;;40.60;21.90;;;;;;4995291;28;20291;-70
2022/07/19 09:55:36;;;;;;;4.90;3.70;;;40.80;22.30;;;;;;4995179;28;20208;-70
2022/07/19 09:58:05;;;;;;;6.45;3.50;;;41.00;22.70;;;;;;4994937;28;20220;-70
2022/07/19 10:00:32;;;;;;;10.15;3.33;;;41.20;22.30;;;;;;4994865;28;20208;-70
2022/07/19 10:03:01;;;;;;;4.55;3.28;;;41.40;22.00;;;;;;4994935;28;20201;-70
2022/07/19 10:05:30;;;;;;;5.07;3.15;;;41.60;21.90;;;;;;4994907;28;20267;-70
2022/07/19 10:07:59;;;;;;;6.90;2.67;;;41.90;21.20;;;;;;4994547;28;20706;-70
2022/07/19 10:10:30;;;;;;;5.10;3.00;;;42.20;21.10;;;;;;4993767;28;20444;-70
2022/07/19 10:12:59;;;;;;;5.75;2.95;;;42.50;20.90;;;;;;4994744;28;20232;-70
2022/07/19 10:15:27;;;;;;;7.03;2.90;;;42.70;17.90;;;;;;4993988;28;20434;-70
2022/07/19 10:18:08;;;;;;;4.90;3.10;;;42.60;17.90;;;;;;4994416;28;20714;-70
2022/07/19 10:20:36;;;;;;;5.88;2.85;;;42.60;18.10;;;;;;4994743;28;20193;-70
2022/07/19 10:23:05;;;;;;;5.32;2.85;;;42.80;18.80;;;;;;4994716;28;20211;-70
2022/07/19 10:25:43;;;;;;;6.72;3.22;;;43.10;17.30;;;;;;4994575;28;20223;-70
2022/07/19 10:28:34;;;;;;;4.60;2.80;;;43.30;17.30;;;;;;4994858;28;20235;-70
2022/07/19 10:31:01;;;;;;;6.50;3.35;;;43.50;17.30;;;;;;4994700;28;20191;-70
2022/07/19 10:33:33;;;;;;;5.82;3.17;;;43.70;16.10;;;;;;4994712;28;20204;-70
2022/07/19 10:36:34;;;;;;;4.30;2.90;;;43.70;15.80;;;;;;4994644;28;20191;-70
2022/07/19 10:39:21;;;;;;;7.28;2.97;;;43.90;15.80;;;;;;4994306;28;20603;-70
2022/07/19 10:42:16;;;;;;;4.63;2.85;;;43.90;15.50;;;;;;4994750;28;20219;-70
2022/07/19 10:45:17;;;;;;;3.92;2.63;;;43.90;15.50;;;;;;4992485;28;20224;-69
2022/07/19 10:48:07;;;;;;;4.68;3.03;;;44.20;15.20;;;;;;4994122;28;20224;-70
2022/07/19 10:50:49;;;;;;;4.05;3.08;;;44.60;15.50;;;;;;4994244;28;20215;-70
2022/07/19 10:53:57;;;;;;;4.30;3.22;;;45.10;15.80;;;;;;4994358;28;20184;-70
2022/07/19 10:56:28;;;;;;;11.52;2.80;;;45.40;13.50;;;;;;4994134;28;20288;-70
2022/07/19 10:58:56;;;;;;;3.00;2.50;;;45.60;13.80;;;;;;4993795;28;20220;-70
2022/07/19 11:01:24;;;;;;;4.65;2.38;;;46.00;13.50;;;;;;4994008;28;20208;-70
2022/07/19 11:03:54;;;;;;;5.47;2.53;;;46.50;14.30;;;;;;4993998;28;20216;-70
2022/07/19 11:06:23;;;;;;;4.25;2.58;;;47.00;12.00;;;;;;4994044;28;20189;-70
2022/07/19 11:08:54;;;;;;;6.30;2.03;;;47.30;13.40;;;;;;4993938;28;20227;-70
2022/07/19 11:11:21;;;;;;;11.50;2.33;;;47.60;10.70;;;;;;4993861;28;20227;-70
2022/07/19 11:13:51;;;;;;;5.80;2.20;;;47.50;11.10;;;;;;4993975;28;20200;-70
2022/07/19 11:16:18;;;;;;;2.95;1.90;;;47.60;11.90;;;;;;4993685;28;20184;-70
2022/07/19 11:18:45;;;;;;;7.68;2.28;;;47.90;12.10;;;;;;4993770;28;20229;-70
2022/07/19 11:21:13;;;;;;;5.80;2.22;;;48.40;10.50;;;;;;4993896;28;20565;-70
2022/07/19 11:23:41;;;;;;;3.65;1.80;;;48.60;10.00;;;;;;4993849;28;20197;-70
2022/07/19 11:26:10;;;;;;;5.50;2.10;;;48.60;10.30;;;;;;4993840;28;20307;-70
2022/07/19 11:28:38;;;;;;;5.18;2.05;;;48.50;10.20;;;;;;4993763;28;20593;-70
2022/07/19 11:31:18;;;;;;;3.25;1.70;;;48.60;10.90;;;;;;4993887;28;20185;-70
2022/07/19 11:33:46;;;;;;;5.55;2.40;;;49.10;9.90;;;;;;4993790;28;20196;-70
2022/07/19 11:36:15;;;;;;;2.97;1.73;;;49.20;10.00;;;;;;4993471;28;20589;-70
2022/07/19 11:38:44;;;;;;;3.53;2.03;;;49.40;10.50;;;;;;4993704;28;20272;-70
2022/07/19 11:41:18;;;;;;;3.05;2.63;;;49.90;11.80;;;;;;4993673;28;20276;-70
2022/07/19 11:43:45;;;;;;;2.58;2.33;;;50.40;11.30;;;;;;4993629;28;20204;-70
2022/07/19 11:46:18;;;;;;;6.20;2.20;;;50.70;10.40;;;;;;4993772;28;20218;-70
2022/07/19 11:48:44;;;;;;;4.78;2.00;;;51.20;10.50;;;;;;4993602;28;20228;-70
2022/07/19 11:51:12;;;;;;;4.35;1.98;;;51.60;10.40;;;;;;4995401;28;20203;-70
2022/07/19 11:53:40;;;;;;;3.60;2.03;;;52.00;9.70;;;;;;4996853;28;20544;-70
2022/07/19 11:56:18;;;;;;;5.78;2.35;;;52.40;9.40;;;;;;4996958;28;20689;-71
2022/07/19 11:58:45;;;;;;;6.97;2.28;;;52.60;8.90;;;;;;4997031;28;20307;-71
2022/07/19 12:01:12;;;;;;;4.22;2.50;;;52.80;8.70;;;;;;4997008;28;20209;-71
2022/07/19 12:03:41;;;;;;;5.57;2.22;;;52.80;7.90;;;;;;4996860;28;20674;-71
2022/07/19 12:06:09;;;;;;;3.05;2.00;;;52.40;7.90;;;;;;4996587;28;20617;-70
2022/07/19 12:08:40;;;;;;;3.97;2.10;;;52.40;8.40;;;;;;4996465;28;20605;-70
2022/07/19 12:11:22;;;;;;;8.13;2.65;;;52.00;7.30;;;;;;4996773;28;20227;-70
2022/07/19 12:13:50;;;;;;;3.00;2.45;;;51.90;8.50;;;;;;4996924;28;20586;-70
2022/07/19 12:16:17;;;;;;;2.90;2.13;;;52.00;7.40;;;;;;4996814;28;20200;-70
2022/07/19 12:18:51;;;;;;;3.90;2.13;;;52.20;9.00;;;;;;4996583;28;20228;-70
2022/07/19 12:21:26;;;;;;;5.38;2.22;;;52.50;9.50;;;;;;4996952;28;20204;-71
2022/07/19 12:24:14;;;;;;;4.97;2.58;;;53.10;8.50;;;;;;4996607;28;20192;-70
2022/07/19 12:26:43;;;;;;;6.47;2.33;;;53.50;9.50;;;;;;4996600;28;20189;-70
2022/07/19 12:29:20;;;;;;;4.72;2.50;;;53.90;8.70;;;;;;4996511;28;20228;-70
2022/07/19 12:31:48;;;;;;;3.63;2.13;;;54.40;8.50;;;;;;4996581;28;20204;-70
2022/07/19 12:34:17;;;;;;;4.28;2.50;;;54.80;8.70;;;;;;4996251;28;20200;-70
2022/07/19 12:36:44;;;;;;;7.82;2.58;;;54.90;6.30;;;;;;4996450;28;20193;-71
2022/07/19 12:39:26;;;;;;;3.20;2.50;;;55.10;7.70;;;;;;4996334;28;20228;-71
2022/07/19 12:42:16;;;;;;;4.95;2.53;;;55.40;7.30;;;;;;4996530;28;20199;-71
2022/07/19 12:44:44;;;;;;;3.85;2.28;;;55.60;7.70;;;;;;4996291;28;20220;-71
2022/07/19 12:47:10;;;;;;;3.75;2.03;;;56.00;7.50;;;;;;4996392;28;20682;-71
2022/07/19 12:49:47;;;;;;;4.93;2.03;;;56.40;7.80;;;;;;4995881;28;20678;-71
2022/07/19 12:52:14;;;;;;;2.92;1.90;;;56.80;7.20;;;;;;4996308;28;20202;-71